Time;durP1;ratioP1;P1;durP2;ratioP2;P2;SDS_P1;SDS_P2;PMS_P1;PMS_P2;Temp;Humidity;BMP_temperature;BMP_pressure;BME280_temperature;BME280_humidity;BME280_pressure;Samples;Min_cycle;Max_cycle;Signal;HPM_P1;HPM_P2
2022/05/25 00:00:36;;;;;;;4.80;4.40;;;18.10;99.90;;;;;;4999132;28;20414;-46
2022/05/25 00:03:06;;;;;;;5.53;4.80;;;17.90;99.90;;;;;;4998669;28;20446;-48
2022/05/25 00:05:34;;;;;;;4.63;4.10;;;17.80;99.90;;;;;;4996538;28;20421;-44
2022/05/25 00:08:02;;;;;;;4.37;4.07;;;17.80;99.90;;;;;;4999416;28;20787;-43
2022/05/25 00:10:29;;;;;;;4.90;4.40;;;17.80;99.90;;;;;;4998628;28;20496;-45
2022/05/25 00:12:56;;;;;;;8.37;5.33;;;17.80;99.90;;;;;;4998893;28;20432;-45
2022/05/25 00:15:24;;;;;;;6.87;4.50;;;17.50;99.90;;;;;;4998319;28;20494;-45
2022/05/25 00:17:51;;;;;;;4.37;4.00;;;17.20;99.90;;;;;;4998062;28;20464;-48
2022/05/25 00:20:19;;;;;;;5.10;4.10;;;17.30;99.90;;;;;;4998571;28;20437;-43
2022/05/25 00:22:52;;;;;;;9.83;4.80;;;17.30;99.90;;;;;;4998805;28;20456;-49
2022/05/25 00:25:24;;;;;;;4.90;4.40;;;17.30;99.90;;;;;;4999218;28;20425;-46
2022/05/25 00:27:51;;;;;;;5.00;4.50;;;17.40;99.90;;;;;;4947610;28;20458;-43
2022/05/25 00:30:18;;;;;;;8.43;5.10;;;17.20;99.90;;;;;;4999420;28;20490;-45
2022/05/25 00:32:45;;;;;;;5.73;4.87;;;17.30;99.90;;;;;;4984646;28;20483;-47
2022/05/25 00:35:16;;;;;;;5.90;5.10;;;17.50;99.90;;;;;;4989503;28;20494;-42
2022/05/25 00:37:44;;;;;;;10.63;5.47;;;17.40;99.90;;;;;;4979738;28;20515;-43
2022/05/25 00:40:15;;;;;;;5.20;4.73;;;17.30;99.90;;;;;;4979019;28;20512;-43
2022/05/25 00:42:42;;;;;;;5.70;5.20;;;17.40;99.90;;;;;;4979255;28;20522;-45
2022/05/25 00:45:11;;;;;;;6.93;5.70;;;17.30;99.90;;;;;;4979407;28;20496;-43
2022/05/25 00:47:40;;;;;;;6.47;5.80;;;17.20;99.90;;;;;;4979271;28;20968;-45
2022/05/25 00:50:12;;;;;;;7.00;6.40;;;17.10;99.90;;;;;;4978653;28;20444;-44
2022/05/25 00:52:41;;;;;;;7.03;6.37;;;17.10;99.90;;;;;;4978488;28;20491;-45
2022/05/25 00:55:11;;;;;;;7.43;6.57;;;17.10;99.90;;;;;;4978968;28;20463;-48
2022/05/25 00:57:46;;;;;;;11.17;7.50;;;17.10;99.90;;;;;;4981344;28;20444;-48
2022/05/25 01:00:19;;;;;;;6.33;5.73;;;17.00;99.90;;;;;;4997228;28;20940;-46
2022/05/25 01:02:51;;;;;;;6.70;6.10;;;16.90;99.90;;;;;;4998016;28;20429;-41
2022/05/25 01:05:31;;;;;;;9.03;6.13;;;16.80;99.90;;;;;;4998014;28;20948;-42
2022/05/25 01:08:07;;;;;;;8.30;7.47;;;16.70;99.90;;;;;;4997841;28;20439;-46
2022/05/25 01:10:49;;;;;;;8.20;5.93;;;16.70;99.90;;;;;;4997844;28;20771;-46
2022/05/25 01:13:48;;;;;;;6.03;5.43;;;16.70;99.90;;;;;;4997746;28;20651;-48
2022/05/25 01:17:03;;;;;;;9.23;6.00;;;16.60;99.90;;;;;;4997899;28;20436;-47
2022/05/25 01:19:42;;;;;;;5.90;5.30;;;16.50;99.90;;;;;;4938449;28;20441;-47
2022/05/25 01:22:48;;;;;;;7.17;6.47;;;16.40;99.90;;;;;;4996694;28;20496;-48
2022/05/25 01:25:21;;;;;;;7.10;6.40;;;16.40;99.90;;;;;;4985602;28;20629;-44
2022/05/25 01:27:51;;;;;;;6.30;5.80;;;16.40;99.90;;;;;;4997540;28;20438;-42
2022/05/25 01:30:26;;;;;;;6.60;6.00;;;16.40;99.90;;;;;;4996759;28;20444;-46
2022/05/25 01:33:16;;;;;;;7.67;6.93;;;16.30;99.90;;;;;;4999654;28;20531;-46
2022/05/25 01:35:57;;;;;;;6.97;6.27;;;16.30;99.90;;;;;;5002750;28;20854;-43
2022/05/25 01:38:33;;;;;;;7.60;6.87;;;16.30;99.90;;;;;;5002544;28;20669;-44
2022/05/25 01:41:09;;;;;;;8.30;7.57;;;16.20;99.90;;;;;;4996885;28;20437;-45
2022/05/25 01:43:47;;;;;;;9.23;8.33;;;16.20;99.90;;;;;;4997364;28;20757;-42
2022/05/25 01:46:23;;;;;;;8.93;8.13;;;16.20;99.90;;;;;;4997626;28;20441;-45
2022/05/25 01:48:53;;;;;;;13.00;10.43;;;16.10;99.90;;;;;;4997308;28;20774;-44
2022/05/25 01:51:27;;;;;;;9.13;8.23;;;16.10;99.90;;;;;;4997223;28;20495;-43
2022/05/25 01:54:00;;;;;;;10.63;9.70;;;16.20;99.90;;;;;;4997164;28;20443;-42
2022/05/25 01:56:31;;;;;;;9.70;8.70;;;16.30;99.90;;;;;;4997018;28;20408;-44
2022/05/25 01:59:03;;;;;;;10.20;9.30;;;16.30;99.90;;;;;;4996525;28;20658;-44
2022/05/25 02:01:31;;;;;;;13.83;10.20;;;16.40;99.90;;;;;;4996575;28;20448;-45
2022/05/25 02:07:08;;;;;;;14.17;9.43;;;16.60;99.90;;;;;;4996729;28;20506;-43
2022/05/25 02:10:04;;;;;;;10.33;9.23;;;16.80;99.90;;;;;;4996347;28;20452;-44
2022/05/25 02:12:54;;;;;;;11.10;10.00;;;16.90;99.90;;;;;;4995624;28;20468;-44
2022/05/25 02:15:41;;;;;;;15.17;9.97;;;17.10;99.90;;;;;;4996199;28;20464;-46
2022/05/25 02:18:17;;;;;;;15.30;10.50;;;17.10;99.90;;;;;;4996952;28;20509;-43
2022/05/25 02:20:51;;;;;;;11.70;10.50;;;17.10;99.90;;;;;;4996365;28;20427;-44
2022/05/25 02:23:46;;;;;;;11.60;10.50;;;17.10;99.90;;;;;;4996942;28;20510;-42
2022/05/25 02:26:28;;;;;;;11.50;10.07;;;17.10;99.90;;;;;;4996705;28;20768;-41
2022/05/25 02:29:18;;;;;;;12.03;10.67;;;16.90;99.90;;;;;;4996680;28;20663;-42
2022/05/25 02:31:53;;;;;;;11.20;10.10;;;17.00;99.90;;;;;;4995994;28;20465;-42
2022/05/25 02:34:22;;;;;;;14.70;11.90;;;17.10;99.90;;;;;;4996477;28;20671;-42
2022/05/25 02:36:51;;;;;;;12.40;11.23;;;17.30;99.90;;;;;;4996176;28;20444;-42
2022/05/25 02:39:20;;;;;;;13.60;12.37;;;17.30;99.90;;;;;;4998684;28;20440;-42
2022/05/25 02:41:54;;;;;;;10.70;9.63;;;17.30;99.90;;;;;;5003904;28;20459;-43
2022/05/25 02:44:22;;;;;;;12.23;10.93;;;17.20;99.90;;;;;;4995594;28;20772;-43
2022/05/25 02:46:50;;;;;;;13.20;11.43;;;17.30;99.90;;;;;;4994507;28;20411;-45
2022/05/25 02:49:18;;;;;;;13.50;12.20;;;17.20;99.90;;;;;;4996847;28;20457;-45
2022/05/25 02:51:45;;;;;;;12.97;11.87;;;17.30;99.90;;;;;;4996395;28;20949;-39
2022/05/25 02:54:13;;;;;;;12.27;11.00;;;17.30;99.90;;;;;;4996433;28;20424;-42
2022/05/25 02:56:40;;;;;;;14.40;11.67;;;17.30;99.90;;;;;;4983260;28;20504;-40
2022/05/25 02:59:07;;;;;;;12.30;11.00;;;17.30;99.90;;;;;;4977494;28;20446;-46
2022/05/25 03:01:35;;;;;;;11.23;10.03;;;17.30;99.90;;;;;;4976482;28;20781;-44
2022/05/25 03:04:02;;;;;;;13.47;12.10;;;17.30;99.90;;;;;;4976848;28;20444;-42
2022/05/25 03:06:30;;;;;;;12.13;10.80;;;17.30;99.90;;;;;;4958632;28;20439;-45
2022/05/25 03:08:57;;;;;;;10.20;9.20;;;17.30;99.90;;;;;;4976996;28;20420;-42
2022/05/25 03:11:25;;;;;;;11.20;9.97;;;17.20;99.90;;;;;;4976663;28;20449;-44
2022/05/25 03:13:52;;;;;;;12.50;11.30;;;17.30;99.90;;;;;;4975785;28;20422;-42
2022/05/25 03:16:20;;;;;;;9.77;8.97;;;17.30;99.90;;;;;;4975714;28;20486;-45
2022/05/25 03:18:47;;;;;;;13.90;10.60;;;17.30;99.90;;;;;;4975934;28;20417;-45
2022/05/25 03:21:15;;;;;;;9.57;8.57;;;17.20;99.90;;;;;;4976880;28;20473;-42
2022/05/25 03:23:42;;;;;;;10.50;9.43;;;17.30;99.90;;;;;;4976473;28;20731;-43
2022/05/25 03:26:10;;;;;;;12.80;10.73;;;17.20;99.90;;;;;;4977658;28;20425;-45
2022/05/25 03:28:37;;;;;;;9.60;8.70;;;17.20;99.90;;;;;;4976785;28;20441;-44
2022/05/25 03:31:04;;;;;;;9.37;8.50;;;17.10;99.90;;;;;;4976038;28;20530;-43
2022/05/25 03:33:33;;;;;;;9.93;9.03;;;17.00;99.90;;;;;;4975825;28;20488;-44
2022/05/25 03:36:00;;;;;;;11.37;10.27;;;17.00;99.90;;;;;;4975893;28;20527;-45
2022/05/25 03:38:28;;;;;;;13.30;10.57;;;17.00;99.90;;;;;;4976104;28;20522;-45
2022/05/25 03:40:57;;;;;;;9.47;8.57;;;16.80;99.90;;;;;;4975951;28;20777;-46
2022/05/25 03:43:37;;;;;;;11.07;9.97;;;16.80;99.90;;;;;;4976309;28;20507;-45
2022/05/25 03:46:04;;;;;;;9.63;8.73;;;16.90;99.90;;;;;;4975591;28;20451;-41
2022/05/25 03:48:31;;;;;;;10.97;9.77;;;16.90;99.90;;;;;;4976213;28;20477;-42
2022/05/25 03:50:59;;;;;;;11.67;10.20;;;16.80;99.90;;;;;;4975653;28;20455;-42
2022/05/25 03:53:26;;;;;;;10.87;9.80;;;16.90;99.90;;;;;;4976090;28;20447;-44
2022/05/25 03:55:54;;;;;;;10.70;9.70;;;16.80;99.90;;;;;;4976370;28;20864;-40
2022/05/25 03:58:21;;;;;;;11.20;9.50;;;16.80;99.90;;;;;;4986624;28;20442;-52
2022/05/25 04:00:52;;;;;;;12.00;10.67;;;16.70;99.90;;;;;;4980333;28;20453;-45
2022/05/25 04:03:21;;;;;;;9.93;9.03;;;16.50;99.90;;;;;;4985575;28;20453;-41
2022/05/25 04:05:49;;;;;;;10.07;9.07;;;16.40;99.90;;;;;;4981143;28;20449;-45
2022/05/25 04:08:16;;;;;;;10.00;9.10;;;16.50;99.90;;;;;;4976100;28;20487;-44
2022/05/25 04:10:43;;;;;;;11.10;9.50;;;16.60;99.90;;;;;;4975296;28;20581;-46
2022/05/25 04:13:11;;;;;;;14.40;10.70;;;16.80;99.90;;;;;;4975517;28;20412;-42
2022/05/25 04:15:38;;;;;;;11.13;10.03;;;17.00;99.90;;;;;;4974599;28;20897;-47
2022/05/25 04:18:06;;;;;;;11.20;10.20;;;17.00;99.90;;;;;;4975619;28;20442;-41
2022/05/25 04:20:33;;;;;;;11.10;10.07;;;17.10;99.90;;;;;;4975757;28;20424;-44
2022/05/25 04:23:02;;;;;;;8.90;8.07;;;17.00;99.90;;;;;;4990646;28;20446;-45
2022/05/25 04:25:29;;;;;;;12.67;9.20;;;16.90;99.90;;;;;;4976680;28;20483;-45
2022/05/25 04:27:57;;;;;;;10.13;9.13;;;16.90;99.90;;;;;;4979115;28;20818;-41
2022/05/25 04:30:27;;;;;;;11.67;10.57;;;16.70;99.90;;;;;;4979513;28;20848;-45
2022/05/25 04:32:55;;;;;;;10.07;9.07;;;16.90;99.90;;;;;;4978642;28;20467;-46
2022/05/25 04:35:23;;;;;;;10.50;8.87;;;16.80;99.90;;;;;;4981766;28;20550;-45
2022/05/25 04:37:53;;;;;;;9.10;8.20;;;16.90;99.90;;;;;;4991350;28;20444;-40
2022/05/25 04:40:25;;;;;;;8.47;7.67;;;17.10;99.90;;;;;;4979000;28;20648;-45
2022/05/25 04:42:55;;;;;;;8.20;7.23;;;17.20;99.90;;;;;;4978771;28;20674;-46
2022/05/25 04:45:25;;;;;;;8.20;7.50;;;17.30;99.90;;;;;;4981477;28;20502;-41
2022/05/25 04:47:55;;;;;;;8.97;8.07;;;17.40;99.90;;;;;;4991246;28;20443;-49
2022/05/25 04:50:24;;;;;;;6.30;5.70;;;17.30;99.90;;;;;;4978831;28;20481;-41
2022/05/25 04:52:51;;;;;;;5.30;4.90;;;17.30;99.90;;;;;;4993632;28;20462;-46
2022/05/25 04:58:05;;;;;;;6.20;5.53;;;17.20;99.90;;;;;;4994987;28;20818;-43
2022/05/25 05:00:33;;;;;;;6.80;6.20;;;17.20;99.90;;;;;;4978255;28;20490;-45
2022/05/25 05:03:01;;;;;;;7.17;6.47;;;17.30;99.90;;;;;;4978572;28;20475;-43
2022/05/25 05:05:28;;;;;;;8.23;6.50;;;17.30;99.90;;;;;;4984240;28;20656;-44
2022/05/25 05:07:55;;;;;;;7.23;6.60;;;17.30;99.90;;;;;;4995623;28;20473;-46
2022/05/25 05:10:22;;;;;;;8.50;7.60;;;17.40;99.90;;;;;;4987156;28;20479;-47
2022/05/25 05:12:50;;;;;;;6.53;6.03;;;17.40;99.90;;;;;;4993633;28;20775;-44
2022/05/25 05:15:17;;;;;;;7.00;6.40;;;17.30;99.90;;;;;;4979442;28;20872;-47
2022/05/25 05:17:44;;;;;;;6.67;6.10;;;17.20;99.90;;;;;;4978348;28;20534;-42
2022/05/25 05:20:12;;;;;;;6.50;5.90;;;17.20;99.90;;;;;;4978227;28;20441;-46
2022/05/25 05:22:39;;;;;;;6.60;5.93;;;17.10;99.90;;;;;;4982832;28;20437;-48
2022/05/25 05:25:07;;;;;;;7.47;6.73;;;17.20;99.90;;;;;;4981183;28;20785;-43
2022/05/25 05:27:34;;;;;;;7.03;5.70;;;17.20;99.90;;;;;;4978291;28;20452;-42
2022/05/25 05:30:05;;;;;;;7.33;6.73;;;17.30;99.90;;;;;;4978523;28;20444;-41
2022/05/25 05:32:33;;;;;;;7.63;7.03;;;17.30;99.90;;;;;;4978026;28;20504;-46
2022/05/25 05:35:00;;;;;;;7.93;6.73;;;17.40;99.90;;;;;;4978019;28;20479;-45
2022/05/25 05:37:36;;;;;;;7.40;6.07;;;17.40;99.90;;;;;;4988706;28;20456;-48
2022/05/25 05:40:07;;;;;;;6.63;6.03;;;17.60;99.90;;;;;;4989020;28;20509;-42
2022/05/25 05:42:40;;;;;;;6.70;6.10;;;17.60;99.90;;;;;;4993241;28;20442;-45
2022/05/25 05:45:17;;;;;;;7.60;6.80;;;17.40;99.90;;;;;;4981951;28;20446;-44
2022/05/25 05:47:50;;;;;;;8.60;6.40;;;17.50;99.90;;;;;;4991659;28;20430;-43
2022/05/25 05:50:19;;;;;;;6.70;6.13;;;17.50;99.90;;;;;;4978797;28;20444;-49
2022/05/25 05:52:49;;;;;;;5.30;4.90;;;17.50;99.90;;;;;;4977335;28;20444;-45
2022/05/25 05:55:18;;;;;;;5.27;4.73;;;17.70;99.90;;;;;;4977855;28;20566;-42
2022/05/25 05:57:45;;;;;;;6.60;4.60;;;17.80;99.90;;;;;;4977560;28;20414;-44
2022/05/25 06:00:15;;;;;;;6.60;4.77;;;17.50;99.90;;;;;;4978039;28;20440;-42
2022/05/25 06:02:43;;;;;;;6.03;4.53;;;17.50;99.90;;;;;;4959126;28;20849;-45
2022/05/25 06:05:14;;;;;;;5.13;4.73;;;17.60;99.90;;;;;;4981713;28;20452;-43
2022/05/25 06:07:41;;;;;;;3.97;3.57;;;17.60;99.90;;;;;;4996092;28;20800;-44
2022/05/25 06:10:09;;;;;;;4.90;4.10;;;17.60;99.90;;;;;;4980759;28;20466;-42
2022/05/25 06:12:43;;;;;;;6.20;5.60;;;17.40;99.90;;;;;;4982601;28;20475;-47
2022/05/25 06:20:46;;;;;;;4.83;4.50;;;17.40;99.90;;;;;;4989332;28;20444;-45
2022/05/25 06:23:13;;;;;;;5.70;5.07;;;17.50;99.90;;;;;;4988139;28;20447;-42
2022/05/25 06:25:40;;;;;;;5.27;4.80;;;17.60;99.90;;;;;;4990889;28;20795;-41
2022/05/25 06:28:07;;;;;;;4.93;4.27;;;17.50;99.90;;;;;;4977209;28;20418;-47
2022/05/25 06:30:35;;;;;;;7.80;4.53;;;17.30;99.90;;;;;;4877256;28;20457;-46
2022/05/25 06:33:05;;;;;;;6.53;5.93;;;17.10;99.90;;;;;;4976560;28;20497;-41
2022/05/25 06:35:36;;;;;;;5.03;3.00;;;16.90;99.90;;;;;;4980850;28;20542;-40
2022/05/25 06:38:03;;;;;;;2.60;2.40;;;16.90;99.90;;;;;;4987694;28;20442;-45
2022/05/25 06:40:31;;;;;;;3.33;3.07;;;16.60;99.90;;;;;;4976650;28;20834;-41
2022/05/25 06:43:01;;;;;;;2.67;2.47;;;16.30;99.90;;;;;;4975914;28;20758;-46
2022/05/25 06:45:30;;;;;;;3.33;3.00;;;16.00;99.90;;;;;;4978441;28;20441;-44
2022/05/25 06:47:58;;;;;;;3.33;3.03;;;16.10;99.90;;;;;;4960656;28;20653;-43
2022/05/25 06:50:25;;;;;;;4.60;3.00;;;16.10;99.90;;;;;;4980482;28;20504;-42
2022/05/25 06:52:53;;;;;;;3.97;3.67;;;16.20;99.90;;;;;;4975563;28;20781;-44
2022/05/25 06:55:23;;;;;;;5.83;4.10;;;16.50;99.90;;;;;;4984441;28;20483;-47
2022/05/25 06:57:52;;;;;;;5.60;4.27;;;16.50;99.90;;;;;;4979749;28;20450;-44
2022/05/25 07:00:19;;;;;;;4.23;3.93;;;16.60;99.90;;;;;;4988936;28;20477;-44
2022/05/25 07:02:47;;;;;;;5.63;5.03;;;16.40;99.90;;;;;;4987591;28;20472;-45
2022/05/25 07:05:14;;;;;;;4.90;4.60;;;16.40;99.90;;;;;;4995597;28;20810;-42
2022/05/25 07:07:41;;;;;;;6.40;5.50;;;16.60;99.90;;;;;;4995747;28;20439;-43
2022/05/25 07:10:10;;;;;;;6.00;5.50;;;16.60;99.90;;;;;;4994161;28;20448;-44
2022/05/25 07:12:37;;;;;;;4.90;4.10;;;16.70;99.90;;;;;;4982876;28;20477;-43
2022/05/25 07:15:05;;;;;;;6.30;4.07;;;16.70;99.90;;;;;;4975339;28;20517;-43
2022/05/25 07:17:34;;;;;;;6.90;5.23;;;16.60;99.90;;;;;;4980647;28;20423;-43
2022/05/25 07:20:03;;;;;;;7.07;4.37;;;16.80;99.90;;;;;;4987446;28;20938;-47
2022/05/25 07:22:31;;;;;;;4.30;3.90;;;17.00;99.90;;;;;;4976189;28;20442;-45
2022/05/25 07:24:58;;;;;;;4.40;4.10;;;17.10;99.90;;;;;;4975990;28;20700;-46
2022/05/25 07:27:25;;;;;;;4.50;4.10;;;17.10;99.90;;;;;;4980329;28;20783;-45
2022/05/25 07:29:52;;;;;;;4.33;4.00;;;17.30;99.90;;;;;;4985274;28;20439;-47
2022/05/25 07:32:22;;;;;;;5.87;4.63;;;17.30;99.90;;;;;;4995983;28;20437;-45
2022/05/25 07:34:58;;;;;;;5.00;4.50;;;17.30;99.90;;;;;;4993390;28;20450;-47
2022/05/25 07:37:35;;;;;;;7.40;4.50;;;17.30;99.90;;;;;;4987487;28;20484;-46
2022/05/25 07:40:05;;;;;;;4.30;3.70;;;17.50;99.90;;;;;;4995247;28;20503;-43
2022/05/25 07:42:34;;;;;;;3.67;3.37;;;17.40;99.90;;;;;;4994500;28;20651;-44
2022/05/25 07:45:03;;;;;;;4.77;4.37;;;17.40;99.90;;;;;;4995094;28;20421;-42
2022/05/25 07:47:32;;;;;;;4.33;3.93;;;17.60;99.90;;;;;;4987577;28;20440;-46
2022/05/25 07:49:59;;;;;;;3.40;2.93;;;17.40;99.90;;;;;;4995598;28;20488;-43
2022/05/25 07:52:30;;;;;;;5.80;4.60;;;17.20;99.90;;;;;;4994961;28;20482;-45
2022/05/25 07:54:58;;;;;;;3.80;3.50;;;17.20;99.90;;;;;;4977986;28;20432;-49
2022/05/25 07:57:26;;;;;;;4.10;3.70;;;17.00;99.90;;;;;;4977911;28;20543;-48
2022/05/25 07:59:53;;;;;;;5.13;4.23;;;16.80;99.90;;;;;;4992913;28;20779;-47
2022/05/25 08:08:09;;;;;;;4.50;4.20;;;17.00;99.90;;;;;;4989580;28;20456;-43
2022/05/25 08:10:36;;;;;;;4.00;3.60;;;17.20;99.90;;;;;;4978186;28;20439;-46
2022/05/25 08:13:05;;;;;;;5.27;3.57;;;17.20;99.90;;;;;;4978524;28;20496;-45
2022/05/25 08:15:33;;;;;;;3.60;3.30;;;17.10;99.90;;;;;;4979213;28;20935;-44
2022/05/25 08:18:01;;;;;;;4.27;2.93;;;17.00;99.90;;;;;;4979277;28;20494;-45
2022/05/25 08:20:30;;;;;;;5.20;4.40;;;17.00;99.90;;;;;;4979124;28;20421;-42
2022/05/25 08:22:58;;;;;;;4.37;3.97;;;17.30;99.90;;;;;;4978972;28;20801;-42
2022/05/25 08:25:25;;;;;;;4.03;3.73;;;17.40;99.90;;;;;;4979055;28;20428;-44
2022/05/25 08:27:52;;;;;;;2.90;2.70;;;17.40;99.90;;;;;;4979421;28;20432;-46
2022/05/25 08:30:21;;;;;;;3.20;2.73;;;17.30;99.90;;;;;;4978659;28;20509;-44
2022/05/25 08:32:48;;;;;;;4.80;2.93;;;16.90;99.90;;;;;;4999024;28;20502;-43
2022/05/25 08:35:16;;;;;;;6.70;4.20;;;16.60;99.90;;;;;;4994103;28;20521;-43
2022/05/25 08:37:43;;;;;;;4.40;4.00;;;16.60;99.90;;;;;;4997492;28;20499;-49
2022/05/25 08:40:14;;;;;;;3.93;3.57;;;16.40;99.90;;;;;;4997622;28;20667;-51
2022/05/25 08:43:07;;;;;;;5.60;4.80;;;16.50;99.90;;;;;;4997520;28;20445;-47
2022/05/25 08:45:44;;;;;;;4.27;3.30;;;16.70;99.90;;;;;;4990256;28;20396;-44
2022/05/25 08:48:14;;;;;;;4.67;4.27;;;16.30;99.90;;;;;;4981105;28;20454;-44
2022/05/25 08:50:42;;;;;;;3.63;3.33;;;16.10;99.90;;;;;;4997801;28;20437;-44
2022/05/25 08:53:11;;;;;;;4.53;3.57;;;16.00;99.90;;;;;;4997566;28;20456;-45
2022/05/25 08:56:03;;;;;;;4.67;4.27;;;15.90;99.90;;;;;;4997950;28;20422;-45
2022/05/25 08:58:46;;;;;;;4.10;3.80;;;15.90;99.90;;;;;;4980416;28;20441;-44
2022/05/25 09:01:30;;;;;;;5.37;4.37;;;15.90;99.90;;;;;;4997606;28;20303;-46
2022/05/25 09:04:05;;;;;;;3.60;3.30;;;16.20;99.90;;;;;;4997666;28;20839;-48
2022/05/25 09:06:48;;;;;;;4.03;2.77;;;16.70;99.90;;;;;;4997962;28;20487;-46
2022/05/25 09:09:39;;;;;;;4.47;3.33;;;17.40;99.90;;;;;;4997604;28;20469;-46
2022/05/25 09:12:10;;;;;;;3.37;3.13;;;18.30;99.90;;;;;;4996271;28;20470;-42
2022/05/25 09:14:45;;;;;;;2.67;2.47;;;18.80;99.90;;;;;;4992455;28;20448;-44
2022/05/25 09:17:52;;;;;;;2.90;2.70;;;18.80;99.90;;;;;;4978507;28;20454;-45
2022/05/25 09:20:32;;;;;;;2.70;2.50;;;18.50;99.90;;;;;;4976608;28;20621;-45
2022/05/25 09:22:59;;;;;;;2.73;2.47;;;18.70;99.90;;;;;;4978463;28;20465;-41
2022/05/25 09:25:28;;;;;;;2.33;2.03;;;18.30;99.90;;;;;;4985834;28;20475;-49
2022/05/25 09:28:19;;;;;;;3.73;3.43;;;18.20;99.90;;;;;;4982447;28;20421;-47
2022/05/25 09:30:50;;;;;;;3.17;2.90;;;18.30;99.90;;;;;;4977012;28;20417;-49
2022/05/25 09:33:38;;;;;;;3.57;2.97;;;18.60;99.90;;;;;;4960532;28;20417;-47
2022/05/25 09:36:22;;;;;;;2.80;2.60;;;19.20;99.90;;;;;;4978252;28;20617;-44
2022/05/25 09:39:15;;;;;;;4.00;3.70;;;19.50;99.90;;;;;;4978069;28;20519;-42
2022/05/25 09:41:45;;;;;;;3.80;3.40;;;19.80;99.90;;;;;;4977024;28;20464;-46
2022/05/25 09:44:16;;;;;;;4.90;4.40;;;19.60;99.90;;;;;;4977743;28;20652;-45
2022/05/25 09:46:59;;;;;;;4.87;4.07;;;19.90;99.90;;;;;;4976678;28;20452;-41
2022/05/25 09:49:44;;;;;;;3.10;2.90;;;20.10;99.90;;;;;;4977911;28;20425;-42
2022/05/25 09:52:28;;;;;;;4.50;4.10;;;20.20;99.90;;;;;;4977228;28;20492;-48
2022/05/25 09:55:03;;;;;;;4.90;4.50;;;20.00;99.90;;;;;;4977130;28;20587;-48
2022/05/25 09:57:43;;;;;;;5.27;4.37;;;20.00;99.90;;;;;;4976709;28;20563;-43
2022/05/25 10:00:23;;;;;;;4.80;4.40;;;19.60;99.90;;;;;;4977569;28;20434;-47
2022/05/25 10:02:59;;;;;;;4.87;4.37;;;19.30;99.90;;;;;;4980435;28;20674;-50
2022/05/25 10:05:57;;;;;;;5.17;4.50;;;19.20;99.90;;;;;;4997074;28;20848;-44
2022/05/25 10:08:28;;;;;;;5.07;4.67;;;19.10;99.90;;;;;;4997259;28;20518;-45
2022/05/25 10:11:00;;;;;;;3.73;3.43;;;18.90;99.90;;;;;;4996101;28;20425;-46
2022/05/25 10:13:36;;;;;;;6.70;6.03;;;18.50;99.90;;;;;;4996898;28;20421;-45
2022/05/25 10:16:27;;;;;;;6.73;4.73;;;18.30;99.90;;;;;;4996868;28;20412;-48
2022/05/25 10:18:56;;;;;;;4.87;4.17;;;18.30;99.90;;;;;;4996372;28;20409;-48
2022/05/25 10:21:28;;;;;;;5.23;4.43;;;18.50;99.90;;;;;;4996257;28;20443;-45
2022/05/25 10:23:57;;;;;;;6.00;5.40;;;18.50;99.90;;;;;;4995295;28;20420;-49
2022/05/25 10:26:38;;;;;;;4.63;4.20;;;18.70;99.90;;;;;;4996524;28;20443;-43
2022/05/25 10:29:12;;;;;;;5.40;4.47;;;19.00;99.90;;;;;;4996203;28;20424;-46
2022/05/25 10:37:39;;;;;;;3.70;3.50;;;19.80;99.90;;;;;;4976844;28;20521;-44
2022/05/25 10:40:08;;;;;;;4.10;3.70;;;20.30;99.90;;;;;;4976920;28;20491;-42
2022/05/25 10:42:37;;;;;;;6.07;4.33;;;20.60;99.90;;;;;;4976671;28;20438;-47
2022/05/25 10:45:09;;;;;;;5.30;4.80;;;20.80;99.90;;;;;;4980325;28;20526;-46
2022/05/25 10:47:49;;;;;;;5.17;4.67;;;21.00;99.90;;;;;;4982299;28;20419;-49
2022/05/25 10:50:23;;;;;;;3.80;3.60;;;21.50;99.90;;;;;;4980514;28;20422;-47
2022/05/25 10:53:24;;;;;;;3.43;3.13;;;21.70;99.90;;;;;;4975854;28;20737;-47
2022/05/25 10:56:05;;;;;;;4.33;3.93;;;21.90;99.90;;;;;;4975898;28;20529;-43
2022/05/25 10:58:54;;;;;;;2.90;2.57;;;21.90;99.90;;;;;;4975811;28;20447;-49
2022/05/25 11:01:43;;;;;;;2.63;2.43;;;22.30;99.90;;;;;;4994609;28;20439;-45
2022/05/25 11:04:31;;;;;;;2.27;2.17;;;22.90;99.90;;;;;;4996009;28;20415;-45
2022/05/25 11:07:27;;;;;;;4.53;2.87;;;22.80;99.90;;;;;;4995967;28;20434;-43
2022/05/25 11:10:17;;;;;;;3.07;1.90;;;23.20;99.90;;;;;;4987598;28;20428;-48
2022/05/25 11:13:05;;;;;;;2.37;2.23;;;23.10;99.90;;;;;;4994920;28;20472;-46
2022/05/25 11:15:41;;;;;;;2.27;2.07;;;23.20;99.90;;;;;;4988631;28;20834;-47
2022/05/25 11:18:23;;;;;;;3.77;2.40;;;23.40;99.90;;;;;;4995743;28;20558;-46
2022/05/25 11:21:17;;;;;;;3.20;1.83;;;23.40;99.90;;;;;;4988986;28;20465;-44
2022/05/25 11:24:14;;;;;;;4.70;2.50;;;23.00;99.90;;;;;;4989211;28;20869;-48
2022/05/25 11:26:52;;;;;;;2.50;2.30;;;22.70;99.90;;;;;;4975529;28;20471;-42
2022/05/25 11:29:37;;;;;;;2.83;2.37;;;22.70;99.90;;;;;;4976333;28;20451;-44
2022/05/25 11:32:17;;;;;;;2.37;2.20;;;22.70;99.90;;;;;;4976967;28;20426;-42
2022/05/25 11:35:02;;;;;;;2.80;2.00;;;22.60;99.90;;;;;;4979944;28;20717;-46
2022/05/25 11:37:50;;;;;;;2.53;2.07;;;22.30;99.90;;;;;;4985048;28;20877;-44
2022/05/25 11:40:29;;;;;;;2.73;2.30;;;22.20;99.90;;;;;;4995631;28;20456;-49
2022/05/25 11:43:27;;;;;;;2.93;2.33;;;22.00;99.90;;;;;;4980715;28;20450;-48
2022/05/25 11:45:58;;;;;;;5.33;3.07;;;22.30;99.90;;;;;;4980051;28;20416;-44
2022/05/25 11:48:53;;;;;;;5.60;2.97;;;22.10;99.90;;;;;;4980258;28;20420;-46
2022/05/25 11:51:25;;;;;;;2.90;2.53;;;21.70;99.90;;;;;;4987216;28;20674;-43
2022/05/25 11:54:07;;;;;;;3.43;3.13;;;21.50;99.90;;;;;;4992255;28;20442;-45
2022/05/25 11:57:08;;;;;;;3.10;2.77;;;21.70;99.90;;;;;;4979529;28;20678;-43
2022/05/25 12:00:07;;;;;;;3.53;2.73;;;22.00;99.90;;;;;;4979629;28;20632;-43
2022/05/25 12:03:03;;;;;;;3.07;2.87;;;22.00;99.90;;;;;;4979471;28;20503;-43
2022/05/25 12:05:53;;;;;;;3.30;3.00;;;21.50;99.90;;;;;;4980203;28;20411;-45
2022/05/25 12:09:00;;;;;;;4.17;3.03;;;21.10;99.90;;;;;;4979418;28;20419;-44
2022/05/25 12:11:50;;;;;;;2.80;2.60;;;20.90;99.90;;;;;;4979519;28;20471;-42
2022/05/25 12:14:23;;;;;;;3.50;3.10;;;20.60;99.90;;;;;;4979622;28;20426;-45
2022/05/25 12:16:53;;;;;;;4.50;3.60;;;20.50;99.90;;;;;;4979380;28;20781;-44
2022/05/25 12:19:30;;;;;;;4.73;2.97;;;20.60;99.90;;;;;;4979387;28;20448;-45
2022/05/25 12:22:11;;;;;;;3.23;2.93;;;20.80;99.90;;;;;;4979432;28;20681;-43
2022/05/25 12:24:51;;;;;;;8.37;4.40;;;20.60;99.90;;;;;;4980660;28;20428;-48
2022/05/25 12:27:30;;;;;;;3.40;3.13;;;20.60;99.90;;;;;;4981005;28;20653;-44
2022/05/25 12:30:05;;;;;;;3.37;3.17;;;20.70;99.90;;;;;;4979615;28;20420;-44
2022/05/25 12:32:35;;;;;;;3.03;2.73;;;20.60;99.90;;;;;;4979622;28;20509;-41
2022/05/25 12:35:05;;;;;;;2.93;2.73;;;20.50;99.90;;;;;;4978627;28;20470;-46
2022/05/25 12:37:40;;;;;;;7.10;3.13;;;20.60;99.90;;;;;;4979044;28;20479;-48
2022/05/25 12:40:10;;;;;;;2.93;2.73;;;20.60;99.90;;;;;;4980013;28;20505;-42
2022/05/25 12:42:41;;;;;;;7.90;3.53;;;20.60;99.90;;;;;;4980080;28;20929;-42
2022/05/25 12:48:32;;;;;;;3.37;3.00;;;20.70;99.90;;;;;;4984549;28;20419;-46
2022/05/25 12:51:08;;;;;;;3.60;3.30;;;20.70;99.90;;;;;;4980577;28;20519;-42
2022/05/25 12:53:58;;;;;;;2.90;2.70;;;20.70;99.90;;;;;;4979507;28;20461;-52
2022/05/25 12:56:25;;;;;;;2.93;2.73;;;21.00;99.90;;;;;;4981247;28;20511;-45
2022/05/25 12:58:58;;;;;;;2.70;2.50;;;21.00;99.90;;;;;;4985850;28;20533;-43
2022/05/25 13:01:29;;;;;;;4.07;3.50;;;21.10;99.90;;;;;;4979624;28;20588;-44
2022/05/25 13:03:57;;;;;;;3.00;2.80;;;21.20;99.90;;;;;;5013305;28;20462;-47
2022/05/25 13:06:37;;;;;;;3.63;2.33;;;21.40;99.90;;;;;;5008999;28;20414;-44
2022/05/25 13:09:28;;;;;;;5.63;3.53;;;21.50;99.90;;;;;;5008386;28;20447;-41
2022/05/25 13:11:55;;;;;;;3.67;3.37;;;21.70;99.90;;;;;;5013200;28;20510;-47
2022/05/25 13:14:24;;;;;;;6.13;5.43;;;21.60;99.90;;;;;;5018887;28;20793;-52
2022/05/25 13:16:56;;;;;;;3.93;2.70;;;21.30;99.90;;;;;;5018543;28;20472;-41
2022/05/25 13:19:32;;;;;;;2.53;2.33;;;21.10;99.90;;;;;;5018724;28;20434;-43
2022/05/25 13:22:02;;;;;;;2.83;2.63;;;21.00;99.90;;;;;;5017751;28;20853;-44
2022/05/25 13:24:54;;;;;;;3.43;2.50;;;20.70;99.90;;;;;;5017811;28;20642;-44
2022/05/25 13:28:02;;;;;;;3.20;2.90;;;20.30;99.90;;;;;;5017832;28;20518;-44
2022/05/25 13:30:46;;;;;;;2.70;2.50;;;20.10;99.90;;;;;;4981313;28;20425;-45
2022/05/25 13:33:19;;;;;;;3.33;2.77;;;20.00;99.90;;;;;;4988965;28;20489;-45
2022/05/25 13:35:57;;;;;;;3.37;3.07;;;20.50;99.90;;;;;;4997780;28;20453;-48
2022/05/25 13:38:34;;;;;;;6.07;3.57;;;20.60;99.90;;;;;;4979346;28;20514;-44
2022/05/25 13:41:10;;;;;;;3.00;2.70;;;21.00;99.90;;;;;;4979451;28;20436;-51
2022/05/25 13:43:46;;;;;;;4.23;3.83;;;21.10;99.90;;;;;;4998439;28;20514;-49